createdAt,value
2019-03-22T00:01:16.606Z,0.57
2019-03-22T00:03:48.160Z,0.51
2019-03-22T00:06:20.053Z,0.44
2019-03-22T00:08:51.591Z,0.38
2019-03-22T00:11:23.464Z,0.30
2019-03-22T00:13:55.116Z,0.25
2019-03-22T00:16:26.778Z,0.19
2019-03-22T00:18:58.991Z,0.14
2019-03-22T00:21:30.807Z,0.10
2019-03-22T00:24:02.571Z,0.08
2019-03-22T00:26:34.210Z,0.03
2019-03-22T00:29:05.782Z,-0.02
2019-03-22T00:31:37.440Z,-0.06
2019-03-22T00:34:09.102Z,-0.07
2019-03-22T00:36:40.635Z,-0.09
2019-03-22T00:39:12.518Z,-0.13
2019-03-22T00:41:44.170Z,-0.16
2019-03-22T00:44:15.813Z,-0.19
2019-03-22T00:46:47.692Z,-0.21
2019-03-22T00:49:19.244Z,-0.25
2019-03-22T00:51:50.786Z,-0.30
2019-03-22T00:54:23.677Z,-0.37
2019-03-22T00:56:56.770Z,-0.43
2019-03-22T00:59:28.423Z,-0.47
2019-03-22T01:02:00.292Z,-0.49
2019-03-22T01:04:32.054Z,-0.54
2019-03-22T01:07:03.707Z,-0.60
2019-03-22T01:09:36.590Z,-0.66
2019-03-22T01:12:09.378Z,-0.72
2019-03-22T01:14:41.158Z,-0.80
2019-03-22T01:17:13.837Z,-0.86
2019-03-22T01:19:45.477Z,-0.89
2019-03-22T01:22:17.155Z,-0.90
2019-03-22T01:24:49.023Z,-0.86
2019-03-22T01:27:20.778Z,-0.79
2019-03-22T01:29:52.336Z,-0.69
2019-03-22T01:32:23.989Z,-0.56
2019-03-22T01:34:55.850Z,-0.41
2019-03-22T01:37:27.508Z,-0.28
2019-03-22T01:40:00.499Z,-0.15
2019-03-22T01:42:32.259Z,-0.02
2019-03-22T01:45:05.943Z,0.08
2019-03-22T01:47:38.010Z,0.15
2019-03-22T01:50:15.109Z,0.23
2019-03-22T01:52:47.482Z,0.28
2019-03-22T01:55:19.021Z,0.35
2019-03-22T01:57:53.666Z,0.39
2019-03-22T02:00:23.786Z,0.41
2019-03-22T02:02:55.548Z,0.41
2019-03-22T02:05:27.102Z,0.40
2019-03-22T02:07:58.561Z,0.40
2019-03-22T02:10:30.402Z,0.38
2019-03-22T02:13:02.024Z,0.37
2019-03-22T02:15:33.818Z,0.35
2019-03-22T02:18:05.695Z,0.31
2019-03-22T02:20:37.248Z,0.29
2019-03-22T02:23:09.112Z,0.26
2019-03-22T02:25:40.800Z,0.27
2019-03-22T02:28:12.614Z,0.24
2019-03-22T02:30:44.497Z,0.21
2019-03-22T02:33:16.042Z,0.16
2019-03-22T02:35:47.801Z,0.11
2019-03-22T02:38:19.484Z,0.10
2019-03-22T02:40:51.231Z,0.07
2019-03-22T02:43:22.768Z,0.07
2019-03-22T02:45:54.647Z,0.07
2019-03-22T02:48:26.297Z,0.08
2019-03-22T02:50:57.763Z,0.12
2019-03-22T02:53:29.512Z,0.16
2019-03-22T02:56:01.237Z,0.20
2019-03-22T02:58:32.918Z,0.24
2019-03-22T03:01:04.717Z,0.25
2019-03-22T03:03:36.356Z,0.26
2019-03-22T03:06:08.122Z,0.25
2019-03-22T03:08:39.870Z,0.27
2019-03-22T03:11:11.511Z,0.26
2019-03-22T03:13:43.295Z,0.27
2019-03-22T03:16:15.047Z,0.27
2019-03-22T03:18:46.908Z,0.28
2019-03-22T03:21:18.347Z,0.24
2019-03-22T03:23:50.117Z,0.20
2019-03-22T03:26:21.678Z,0.21
2019-03-22T03:28:53.225Z,0.21
2019-03-22T03:31:25.052Z,0.25
2019-03-22T03:33:56.658Z,0.26
2019-03-22T03:36:28.201Z,0.30
2019-03-22T03:38:59.852Z,0.32
2019-03-22T03:41:31.595Z,0.34
2019-03-22T03:44:03.382Z,0.38
2019-03-22T03:46:35.033Z,0.40
2019-03-22T03:49:06.996Z,0.41
2019-03-22T03:51:38.551Z,0.42
2019-03-22T03:54:10.403Z,0.42
2019-03-22T03:56:42.075Z,0.44
2019-03-22T03:59:13.560Z,0.47
2019-03-22T04:01:45.284Z,0.48
2019-03-22T04:04:17.052Z,0.42
2019-03-22T04:06:48.494Z,0.38
2019-03-22T04:09:20.352Z,0.32
2019-03-22T04:11:52.010Z,0.30
2019-03-22T04:14:23.681Z,0.31
2019-03-22T04:16:55.030Z,0.36
2019-03-22T04:19:26.776Z,0.40
2019-03-22T04:21:58.450Z,0.48
2019-03-22T04:24:29.985Z,0.55
2019-03-22T04:27:01.648Z,0.61
2019-03-22T04:29:33.423Z,0.66
2019-03-22T04:32:04.988Z,0.73
2019-03-22T04:34:36.518Z,0.76
2019-03-22T04:37:08.397Z,0.81
2019-03-22T04:39:39.851Z,0.86
2019-03-22T04:42:11.701Z,0.91
2019-03-22T04:44:43.475Z,1.00
2019-03-22T04:47:15.442Z,1.12
2019-03-22T04:49:47.283Z,1.22
2019-03-22T04:52:19.573Z,1.29
2019-03-22T04:54:51.022Z,1.39
2019-03-22T04:57:22.563Z,1.52
2019-03-22T04:59:54.321Z,1.65
2019-03-22T05:02:25.991Z,1.80
2019-03-22T05:04:57.551Z,1.92
2019-03-22T05:07:29.303Z,2.05
2019-03-22T05:10:00.964Z,2.14
2019-03-22T05:12:32.836Z,2.20
2019-03-22T05:15:06.535Z,2.29
2019-03-22T05:17:38.034Z,2.42
2019-03-22T05:20:09.837Z,2.53
2019-03-22T05:22:41.601Z,2.65
2019-03-22T05:25:13.072Z,2.77
2019-03-22T05:27:44.812Z,2.88
2019-03-22T05:30:51.916Z,2.95
2019-03-22T05:33:23.552Z,3.04
2019-03-22T05:35:55.208Z,3.14
2019-03-22T05:38:27.170Z,3.25
2019-03-22T05:40:59.015Z,3.39
2019-03-22T05:43:30.370Z,3.54
2019-03-22T05:46:02.229Z,3.71
2019-03-22T05:48:33.801Z,3.94
2019-03-22T05:51:05.852Z,4.08
2019-03-22T05:53:37.408Z,4.26
2019-03-22T05:56:10.408Z,4.36
2019-03-22T05:58:42.071Z,4.51
2019-03-22T06:01:13.828Z,4.62
2019-03-22T06:03:45.280Z,4.80
2019-03-22T06:06:16.936Z,4.86
2019-03-22T06:08:48.420Z,4.93
2019-03-22T06:11:20.250Z,5.07
2019-03-22T06:13:52.067Z,5.13
2019-03-22T06:16:23.773Z,5.23
2019-03-22T06:18:55.409Z,5.27
2019-03-22T06:21:27.093Z,5.39
2019-03-22T06:23:58.829Z,5.42
2019-03-22T06:26:30.705Z,5.42
2019-03-22T06:29:02.058Z,5.41
2019-03-22T06:31:33.715Z,5.41
2019-03-22T06:34:05.630Z,5.35
2019-03-22T06:36:37.334Z,5.42
2019-03-22T06:39:09.097Z,5.58
2019-03-22T06:41:40.649Z,5.71
2019-03-22T06:44:12.511Z,5.83
2019-03-22T06:46:44.153Z,5.94
2019-03-22T06:49:15.726Z,6.02
2019-03-22T06:51:47.591Z,6.10
2019-03-22T06:54:30.724Z,6.23
2019-03-22T06:56:52.341Z,6.33
2019-03-22T06:59:24.102Z,6.61
2019-03-22T07:01:55.860Z,6.75
2019-03-22T07:04:27.923Z,6.88
2019-03-22T07:06:59.669Z,6.94
2019-03-22T07:09:31.546Z,7.08
2019-03-22T07:12:03.204Z,7.08
2019-03-22T07:14:35.579Z,7.14
2019-03-22T07:17:07.033Z,7.29
2019-03-22T07:19:39.794Z,7.47
2019-03-22T07:22:12.797Z,7.69
2019-03-22T07:24:44.455Z,8.08
2019-03-22T07:27:16.093Z,8.44
2019-03-22T07:29:47.978Z,8.79
2019-03-22T07:32:21.166Z,9.02
2019-03-22T07:34:52.718Z,9.22
2019-03-22T07:37:24.264Z,9.32
2019-03-22T07:39:55.974Z,9.24
2019-03-22T07:42:27.681Z,9.12
2019-03-22T07:44:59.046Z,9.08
2019-03-22T07:47:30.791Z,8.94
2019-03-22T07:50:05.332Z,8.82
2019-03-22T07:52:36.707Z,8.72
2019-03-22T07:55:08.399Z,8.76
2019-03-22T07:57:40.079Z,8.82
2019-03-22T08:00:13.009Z,8.83
2019-03-22T08:02:44.437Z,9.00
2019-03-22T08:05:15.977Z,9.14
2019-03-22T08:07:47.644Z,9.29
2019-03-22T08:10:19.411Z,9.38
2019-03-22T08:12:51.053Z,9.51
2019-03-22T08:15:28.256Z,9.65
2019-03-22T08:18:00.116Z,9.82
2019-03-22T08:20:31.990Z,10.05
2019-03-22T08:23:04.838Z,10.36
2019-03-22T08:25:36.532Z,10.64
2019-03-22T08:28:07.949Z,10.95
2019-03-22T08:30:43.200Z,11.18
2019-03-22T08:33:13.227Z,11.44
2019-03-22T08:35:44.971Z,11.47
2019-03-22T08:38:17.657Z,11.53
2019-03-22T08:40:49.331Z,11.56
2019-03-22T08:43:21.065Z,11.70
2019-03-22T08:45:52.724Z,11.76
2019-03-22T08:48:24.517Z,11.90
2019-03-22T08:50:56.081Z,11.85
2019-03-22T08:53:27.820Z,11.84
2019-03-22T08:55:59.460Z,12.02
2019-03-22T08:58:31.130Z,12.14
2019-03-22T09:01:02.934Z,12.28
2019-03-22T09:03:34.546Z,12.41
2019-03-22T09:06:07.856Z,12.59
2019-03-22T09:08:39.515Z,12.59
2019-03-22T09:11:11.153Z,12.46
2019-03-22T09:13:42.911Z,12.44
2019-03-22T09:16:14.575Z,12.38
2019-03-22T09:18:47.455Z,12.41
2019-03-22T09:21:19.203Z,12.47
2019-03-22T09:23:50.979Z,12.52
2019-03-22T09:26:22.670Z,12.53
2019-03-22T09:28:54.185Z,12.52
2019-03-22T09:31:25.658Z,12.51
2019-03-22T09:33:57.421Z,12.53
2019-03-22T09:36:29.128Z,12.40
2019-03-22T09:39:00.928Z,12.24
2019-03-22T09:41:32.870Z,12.10
2019-03-22T09:44:05.875Z,11.91
2019-03-22T09:46:37.643Z,11.92
2019-03-22T09:49:09.539Z,11.95
2019-03-22T09:51:41.041Z,11.96
2019-03-22T09:54:12.722Z,12.00
2019-03-22T09:56:47.262Z,12.07
2019-03-22T09:59:17.885Z,12.16
2019-03-22T10:01:49.905Z,12.11
2019-03-22T10:04:21.546Z,12.23
2019-03-22T10:06:53.286Z,12.22
2019-03-22T10:09:24.970Z,12.16
2019-03-22T10:11:56.443Z,12.13
2019-03-22T10:14:31.223Z,12.04
2019-03-22T10:17:01.191Z,11.92
2019-03-22T10:19:32.934Z,12.00
2019-03-22T10:22:04.532Z,11.99
2019-03-22T10:24:36.296Z,12.01
2019-03-22T10:27:07.942Z,11.94
2019-03-22T10:29:39.401Z,11.95
2019-03-22T10:32:11.463Z,11.94
2019-03-22T10:34:42.947Z,11.93
2019-03-22T10:37:15.453Z,11.82
2019-03-22T10:39:47.039Z,11.85
2019-03-22T10:42:19.068Z,11.78
2019-03-22T10:44:50.594Z,11.70
2019-03-22T10:47:22.165Z,11.72
2019-03-22T10:49:54.913Z,11.67
2019-03-22T10:52:26.657Z,11.72
2019-03-22T10:55:07.875Z,11.79
2019-03-22T10:57:31.827Z,11.91
2019-03-22T11:00:05.341Z,12.07
2019-03-22T11:02:36.975Z,12.17
2019-03-22T11:05:08.432Z,12.18
2019-03-22T11:07:40.206Z,12.22
2019-03-22T11:10:13.680Z,12.12
2019-03-22T11:12:45.140Z,11.91
2019-03-22T11:15:16.614Z,11.83
2019-03-22T11:17:48.266Z,11.76
2019-03-22T11:20:20.116Z,11.73
2019-03-22T11:22:51.785Z,11.77
2019-03-22T11:25:23.327Z,11.59
2019-03-22T11:27:54.774Z,11.35
2019-03-22T11:30:26.658Z,11.25
2019-03-22T11:32:58.217Z,11.20
2019-03-22T11:35:29.972Z,11.21
2019-03-22T11:38:01.413Z,11.22
2019-03-22T11:40:33.086Z,11.21
2019-03-22T11:43:08.821Z,11.15
2019-03-22T11:45:38.139Z,11.02
2019-03-22T11:48:09.982Z,10.99
2019-03-22T11:50:41.542Z,11.05
2019-03-22T11:53:13.210Z,11.08
2019-03-22T11:55:45.073Z,11.04
2019-03-22T11:58:16.730Z,11.02
2019-03-22T12:00:51.661Z,11.05
2019-03-22T12:03:23.321Z,11.09
2019-03-22T12:05:54.979Z,11.09
2019-03-22T12:08:26.820Z,10.96
2019-03-22T12:10:58.496Z,10.93
2019-03-22T12:13:30.969Z,10.89
2019-03-22T12:16:02.730Z,10.82
2019-03-22T12:18:35.407Z,10.84
2019-03-22T12:21:06.864Z,10.81
2019-03-22T12:23:38.619Z,10.84
2019-03-22T12:26:11.595Z,10.83
2019-03-22T12:28:43.475Z,10.79
2019-03-22T12:31:15.132Z,10.73
2019-03-22T12:33:46.783Z,10.77
2019-03-22T12:36:18.748Z,10.76
2019-03-22T12:38:50.201Z,10.72
2019-03-22T12:41:22.060Z,10.67
2019-03-22T12:43:53.718Z,10.65
2019-03-22T12:46:25.278Z,10.69
2019-03-22T12:48:57.142Z,10.72
2019-03-22T12:51:28.895Z,10.99
2019-03-22T12:54:00.759Z,11.10
2019-03-22T12:56:32.401Z,11.15
2019-03-22T12:59:04.079Z,11.11
2019-03-22T13:01:36.140Z,11.09
2019-03-22T13:04:08.494Z,11.04
2019-03-22T13:06:40.359Z,10.95
2019-03-22T13:09:11.915Z,10.80
2019-03-22T13:11:43.486Z,10.70
2019-03-22T13:14:15.350Z,10.71
2019-03-22T13:16:46.799Z,10.76
2019-03-22T13:19:18.543Z,10.77
2019-03-22T13:21:50.423Z,10.74
2019-03-22T13:24:21.978Z,10.79
2019-03-22T13:26:53.841Z,10.80
2019-03-22T13:29:25.596Z,10.82
2019-03-22T13:31:57.361Z,10.83
2019-03-22T13:34:28.912Z,10.83
2019-03-22T13:37:00.449Z,10.75
2019-03-22T13:39:32.330Z,10.71
2019-03-22T13:42:03.986Z,10.70
2019-03-22T13:44:35.942Z,10.69
2019-03-22T13:47:07.404Z,10.65
2019-03-22T13:49:38.954Z,10.62
2019-03-22T13:52:10.515Z,10.59
2019-03-22T13:54:42.872Z,10.49
2019-03-22T13:57:14.659Z,10.43
2019-03-22T13:59:46.213Z,10.37
2019-03-22T14:02:17.850Z,10.30
2019-03-22T14:04:49.624Z,10.11
2019-03-22T14:07:21.254Z,9.77
2019-03-22T14:09:53.138Z,9.47
2019-03-22T14:12:24.882Z,9.25
2019-03-22T14:14:56.960Z,9.12
2019-03-22T14:17:28.703Z,9.01
2019-03-22T14:20:10.450Z,8.94
2019-03-22T14:22:33.464Z,8.89
2019-03-22T14:25:06.251Z,8.93
2019-03-22T14:27:37.989Z,8.93
2019-03-22T14:30:09.752Z,8.94
2019-03-22T14:32:41.320Z,9.01
2019-03-22T14:35:12.962Z,9.06
2019-03-22T14:37:44.432Z,9.13
2019-03-22T14:40:16.087Z,9.23
2019-03-22T14:42:47.934Z,9.30
2019-03-22T14:45:19.692Z,9.43
2019-03-22T14:47:51.571Z,9.61
2019-03-22T14:50:23.228Z,9.71
2019-03-22T14:52:55.094Z,9.74
2019-03-22T14:55:26.544Z,9.79
2019-03-22T14:57:58.395Z,9.85
2019-03-22T15:00:30.205Z,9.87
2019-03-22T15:03:01.736Z,9.82
2019-03-22T15:05:36.553Z,9.75
2019-03-22T15:08:10.098Z,9.67
2019-03-22T15:10:41.916Z,9.59
2019-03-22T15:13:14.496Z,9.57
2019-03-22T15:16:05.812Z,9.52
2019-03-22T15:18:50.987Z,9.46
2019-03-22T15:21:24.079Z,9.42
2019-03-22T15:24:06.280Z,9.40
2019-03-22T15:26:44.157Z,9.42
2019-03-22T15:29:38.475Z,9.36
2019-03-22T15:32:40.314Z,9.38
2019-03-22T15:35:16.414Z,9.38
2019-03-22T15:37:59.621Z,9.34
2019-03-22T15:40:31.173Z,9.34
2019-03-22T15:43:04.062Z,9.33
2019-03-22T15:45:35.510Z,9.33
2019-03-22T15:48:07.375Z,9.30
2019-03-22T15:50:38.932Z,9.28
2019-03-22T15:53:11.850Z,9.28
2019-03-22T15:55:43.265Z,9.27
2019-03-22T15:58:15.007Z,9.31
2019-03-22T16:00:46.672Z,9.32
2019-03-22T16:03:18.535Z,9.31
2019-03-22T16:05:50.086Z,9.31
2019-03-22T16:08:21.531Z,9.30
2019-03-22T16:10:54.250Z,9.35
2019-03-22T16:13:26.847Z,9.37
2019-03-22T16:15:58.369Z,9.37
2019-03-22T16:30:40.646Z,4.50
2019-03-22T16:33:12.560Z,4.39
2019-03-22T16:35:44.157Z,4.25
2019-03-22T16:38:15.809Z,4.12
2019-03-22T16:40:47.460Z,4.00
2019-03-22T16:43:20.439Z,3.92
2019-03-22T16:45:51.772Z,3.80
2019-03-22T16:48:23.453Z,3.72
2019-03-22T16:50:56.354Z,3.69
2019-03-22T16:53:28.260Z,3.67
2019-03-22T16:56:01.918Z,3.58
2019-03-22T16:58:33.567Z,3.50
2019-03-22T17:01:06.462Z,3.48
2019-03-22T17:03:37.891Z,3.44
2019-03-22T17:06:09.671Z,3.35
2019-03-22T17:08:41.079Z,3.30
2019-03-22T17:11:12.841Z,3.23
2019-03-22T17:13:44.637Z,3.22
2019-03-22T17:16:16.184Z,3.21
2019-03-22T17:18:47.953Z,3.17
2019-03-22T17:21:19.287Z,3.14
2019-03-22T17:23:51.267Z,3.14
2019-03-22T17:26:22.831Z,3.12
2019-03-22T17:28:54.467Z,3.13
2019-03-22T17:31:26.341Z,3.14
2019-03-22T17:33:58.392Z,3.12
2019-03-22T17:36:29.870Z,3.08
2019-03-22T17:39:01.927Z,3.05
2019-03-22T17:41:34.494Z,3.03
2019-03-22T17:44:06.262Z,3.02
2019-03-22T17:46:37.816Z,3.01
2019-03-22T17:49:09.815Z,2.96
2019-03-22T17:51:41.335Z,2.92
2019-03-22T17:54:13.196Z,2.91
2019-03-22T17:56:44.735Z,2.90
2019-03-22T17:59:16.508Z,2.87
2019-03-22T18:01:48.524Z,2.89
2019-03-22T18:04:24.078Z,2.92
2019-03-22T18:06:53.222Z,2.88
2019-03-22T18:09:25.049Z,2.89
2019-03-22T18:11:56.522Z,2.88
2019-03-22T18:14:28.582Z,2.87
2019-03-22T18:17:00.031Z,2.84
2019-03-22T18:19:33.139Z,2.83
2019-03-22T18:22:04.692Z,2.82
2019-03-22T18:24:36.542Z,2.79
2019-03-22T18:27:08.127Z,2.80
2019-03-22T18:29:40.010Z,2.78
2019-03-22T18:32:12.450Z,2.83
2019-03-22T18:34:44.217Z,2.87
2019-03-22T18:37:16.078Z,2.85
2019-03-22T18:39:48.139Z,2.86
2019-03-22T18:42:19.700Z,2.81
2019-03-22T18:44:51.142Z,2.80
2019-03-22T18:47:22.820Z,2.77
2019-03-22T18:49:55.068Z,2.70
2019-03-22T18:52:26.837Z,2.63
2019-03-22T18:54:58.695Z,2.60
2019-03-22T18:57:30.234Z,2.57
2019-03-22T19:00:02.411Z,2.50
2019-03-22T19:02:34.284Z,2.52
2019-03-22T19:05:07.971Z,2.48
2019-03-22T19:07:39.636Z,2.48
2019-03-22T19:10:12.479Z,2.44
2019-03-22T19:12:44.091Z,2.38
2019-03-22T19:15:15.972Z,2.35
2019-03-22T19:17:47.386Z,2.34
2019-03-22T19:20:20.896Z,2.29
2019-03-22T19:22:52.560Z,2.28
2019-03-22T19:25:24.401Z,2.33
2019-03-22T19:27:56.077Z,2.40
2019-03-22T19:30:27.690Z,2.44
2019-03-22T19:32:59.470Z,2.49
2019-03-22T19:35:32.902Z,2.58
2019-03-22T19:38:04.730Z,2.78
2019-03-22T19:40:36.203Z,2.88
2019-03-22T19:43:08.161Z,2.94
2019-03-22T19:45:39.611Z,2.99
2019-03-22T19:48:12.544Z,3.02
2019-03-22T19:50:44.341Z,3.01
2019-03-22T19:53:16.204Z,3.05
2019-03-22T19:55:47.817Z,3.02
2019-03-22T19:58:19.250Z,2.98
2019-03-22T20:00:50.976Z,2.93
2019-03-22T20:03:22.527Z,2.89
2019-03-22T20:05:54.219Z,2.82
2019-03-22T20:08:25.934Z,2.79
2019-03-22T20:10:57.636Z,2.75
2019-03-22T20:13:29.285Z,2.74
2019-03-22T20:16:01.045Z,2.71
2019-03-22T20:18:32.801Z,2.64
2019-03-22T20:21:04.561Z,2.57
2019-03-22T20:23:36.219Z,2.47
2019-03-22T20:26:07.982Z,2.43
2019-03-22T20:28:39.736Z,2.35
2019-03-22T20:31:11.513Z,2.27
2019-03-22T20:33:43.456Z,2.22
2019-03-22T20:36:15.351Z,2.15
2019-03-22T20:38:46.968Z,2.12
2019-03-22T20:41:19.038Z,2.07
2019-03-22T20:43:50.490Z,2.04
2019-03-22T20:46:22.352Z,2.03
2019-03-22T20:48:53.912Z,2.03
2019-03-22T20:51:25.775Z,2.03
2019-03-22T20:53:57.432Z,1.98
2019-03-22T20:56:29.187Z,1.93
2019-03-22T20:59:00.632Z,1.89
2019-03-22T21:01:32.230Z,1.88
2019-03-22T21:04:03.990Z,1.85
2019-03-22T21:06:36.067Z,1.86
2019-03-22T21:09:07.741Z,1.84
2019-03-22T21:11:39.349Z,1.81
2019-03-22T21:14:10.795Z,1.80
2019-03-22T21:16:42.519Z,1.79
2019-03-22T21:19:14.345Z,1.79
2019-03-22T21:21:45.734Z,1.77
2019-03-22T21:24:17.616Z,1.79
2019-03-22T21:26:49.373Z,1.80
2019-03-22T21:29:22.055Z,1.80
2019-03-22T21:31:53.812Z,1.83
2019-03-22T21:34:25.672Z,1.82
2019-03-22T21:36:57.129Z,1.79
2019-03-22T21:39:30.633Z,1.76
2019-03-22T21:42:02.600Z,1.72
2019-03-22T21:44:34.131Z,1.67
2019-03-22T21:47:05.973Z,1.60
2019-03-22T21:49:37.763Z,1.54
2019-03-22T21:52:10.018Z,1.47
2019-03-22T21:54:41.496Z,1.37
2019-03-22T21:57:13.140Z,1.28
2019-03-22T21:59:44.701Z,1.23
2019-03-22T22:02:16.494Z,1.18
2019-03-22T22:04:48.880Z,1.13
2019-03-22T22:07:20.487Z,1.07
2019-03-22T22:09:52.141Z,0.99
2019-03-22T22:12:24.003Z,0.92
2019-03-22T22:14:55.755Z,0.85
2019-03-22T22:17:27.400Z,0.82
2019-03-22T22:19:59.102Z,0.79
2019-03-22T22:22:30.508Z,0.74
2019-03-22T22:25:02.067Z,0.70
2019-03-22T22:27:33.737Z,0.64
2019-03-22T22:30:10.655Z,0.59
2019-03-22T22:32:42.968Z,0.52
2019-03-22T22:35:14.420Z,0.42
2019-03-22T22:37:47.839Z,0.33
2019-03-22T22:40:19.595Z,0.27
2019-03-22T22:42:51.232Z,0.19
2019-03-22T22:45:22.707Z,0.15
2019-03-22T22:47:54.459Z,0.07
2019-03-22T22:50:26.095Z,-0.02
2019-03-22T22:52:57.560Z,-0.08
2019-03-22T22:55:29.331Z,-0.13
2019-03-22T22:58:00.987Z,-0.22
2019-03-22T23:00:33.040Z,-0.27
2019-03-22T23:03:04.912Z,-0.31
2019-03-22T23:05:37.067Z,-0.31
2019-03-22T23:08:08.438Z,-0.29
2019-03-22T23:10:41.903Z,-0.30
2019-03-22T23:13:13.487Z,-0.33
2019-03-22T23:15:44.920Z,-0.36
2019-03-22T23:18:16.399Z,-0.41
2019-03-22T23:20:47.828Z,-0.47
2019-03-22T23:23:19.504Z,-0.51
2019-03-22T23:25:51.367Z,-0.54
2019-03-22T23:28:22.797Z,-0.53
2019-03-22T23:30:55.379Z,-0.56
2019-03-22T23:33:27.052Z,-0.58
2019-03-22T23:35:58.899Z,-0.58
2019-03-22T23:38:31.909Z,-0.56
2019-03-22T23:41:03.459Z,-0.52
2019-03-22T23:43:35.014Z,-0.46
2019-03-22T23:46:06.684Z,-0.40
2019-03-22T23:48:38.432Z,-0.36
2019-03-22T23:51:10.088Z,-0.31
2019-03-22T23:53:41.544Z,-0.26
2019-03-22T23:56:14.531Z,-0.22
2019-03-22T23:58:46.272Z,-0.18
